createdAt,value
2023-01-09T00:00:31.104Z,19.40
2023-01-09T00:03:00.448Z,19.40
2023-01-09T00:05:29.732Z,19.40
2023-01-09T00:07:59.057Z,19.30
2023-01-09T00:10:28.359Z,19.30
2023-01-09T00:12:57.561Z,19.30
2023-01-09T00:15:27.086Z,19.30
2023-01-09T00:17:57.701Z,19.30
2023-01-09T00:20:26.936Z,19.30
2023-01-09T00:22:56.143Z,19.30
2023-01-09T00:25:25.473Z,19.30
2023-01-09T00:27:54.731Z,19.30
2023-01-09T00:30:24.127Z,19.30
2023-01-09T00:32:53.424Z,19.30
2023-01-09T00:35:26.253Z,19.30
2023-01-09T00:37:55.502Z,19.30
2023-01-09T00:40:24.706Z,19.20
2023-01-09T00:42:58.045Z,19.30
2023-01-09T00:45:30.114Z,19.20
2023-01-09T00:48:03.886Z,19.20
2023-01-09T00:50:35.659Z,19.20
2023-01-09T00:53:10.436Z,19.20
2023-01-09T00:55:41.107Z,19.20
2023-01-09T00:58:10.905Z,19.20
2023-01-09T01:00:40.314Z,19.20
2023-01-09T01:03:09.638Z,19.20
2023-01-09T01:05:57.784Z,19.20
2023-01-09T01:08:26.983Z,19.10
2023-01-09T01:10:56.232Z,19.10
2023-01-09T01:13:25.391Z,19.10
2023-01-09T01:15:54.798Z,19.10
2023-01-09T01:18:23.987Z,19.10
2023-01-09T01:20:54.669Z,19.10
2023-01-09T01:23:24.024Z,19.10
2023-01-09T01:25:53.535Z,19.10
2023-01-09T01:28:22.751Z,19.10
2023-01-09T01:30:52.070Z,19.10
2023-01-09T01:33:21.316Z,19.10
2023-01-09T01:35:50.633Z,19.10
2023-01-09T01:38:21.412Z,19.10
2023-01-09T01:40:54.799Z,19.10
2023-01-09T01:43:24.372Z,19.10
2023-01-09T01:45:53.725Z,19.10
2023-01-09T01:48:27.261Z,19.00
2023-01-09T01:51:00.149Z,19.00
2023-01-09T01:53:36.005Z,19.00
2023-01-09T01:56:12.005Z,19.00
2023-01-09T01:58:47.454Z,19.00
2023-01-09T02:01:17.483Z,19.00
2023-01-09T02:03:47.298Z,19.00
2023-01-09T02:06:17.072Z,19.00
2023-01-09T02:08:48.412Z,19.00
2023-01-09T02:11:20.043Z,19.00
2023-01-09T02:13:50.034Z,19.00
2023-01-09T02:16:30.936Z,19.00
2023-01-09T02:19:12.291Z,19.00
2023-01-09T02:21:52.141Z,19.00
2023-01-09T02:24:46.413Z,19.00
2023-01-09T02:27:31.361Z,19.00
2023-01-09T02:30:26.014Z,18.90
2023-01-09T02:33:04.522Z,18.90
2023-01-09T02:35:55.134Z,18.90
2023-01-09T02:38:34.001Z,18.90
2023-01-09T02:41:09.937Z,18.90
2023-01-09T02:43:41.453Z,18.90
2023-01-09T02:46:21.172Z,18.90
2023-01-09T02:48:54.082Z,18.90
2023-01-09T02:51:33.167Z,18.90
2023-01-09T02:54:17.919Z,18.90
2023-01-09T02:57:03.365Z,18.90
2023-01-09T02:59:38.021Z,18.90
2023-01-09T03:02:26.515Z,18.90
2023-01-09T03:05:04.396Z,18.90
2023-01-09T03:07:39.400Z,18.90
2023-01-09T03:10:15.519Z,18.80
2023-01-09T03:12:46.297Z,18.80
2023-01-09T03:15:17.460Z,18.80
2023-01-09T03:17:50.869Z,18.80
2023-01-09T03:20:24.875Z,18.80
2023-01-09T03:22:58.678Z,18.80
2023-01-09T03:25:29.386Z,18.80
2023-01-09T03:28:00.281Z,18.80
2023-01-09T03:30:30.967Z,18.80
2023-01-09T03:33:01.667Z,18.80
2023-01-09T03:35:31.027Z,18.80
2023-01-09T03:38:00.360Z,18.80
2023-01-09T03:40:29.655Z,18.80
2023-01-09T03:42:58.936Z,18.80
2023-01-09T03:45:28.236Z,18.80
2023-01-09T03:47:58.717Z,18.80
2023-01-09T03:50:29.391Z,18.80
2023-01-09T03:52:58.717Z,18.70
2023-01-09T03:55:28.173Z,18.80
2023-01-09T03:57:57.373Z,18.70
2023-01-09T04:00:26.795Z,18.70
2023-01-09T04:02:55.973Z,18.70
2023-01-09T04:05:25.251Z,18.70
2023-01-09T04:07:56.017Z,18.70
2023-01-09T04:10:25.278Z,18.70
2023-01-09T04:12:54.531Z,18.70
2023-01-09T04:15:23.956Z,18.70
2023-01-09T04:17:53.259Z,18.70
2023-01-09T04:20:22.506Z,18.70
2023-01-09T04:22:51.940Z,18.70
2023-01-09T04:25:23.195Z,18.70
2023-01-09T04:27:52.425Z,18.70
2023-01-09T04:30:21.795Z,18.70
2023-01-09T04:32:52.141Z,18.70
2023-01-09T04:35:21.656Z,18.70
2023-01-09T04:37:50.819Z,18.70
2023-01-09T04:40:21.702Z,18.60
2023-01-09T04:42:50.933Z,18.70
2023-01-09T04:45:20.317Z,18.60
2023-01-09T04:47:49.500Z,18.60
2023-01-09T04:50:18.842Z,18.70
2023-01-09T04:52:48.018Z,18.70
2023-01-09T04:55:17.388Z,18.70
2023-01-09T04:57:48.116Z,18.70
2023-01-09T05:00:18.032Z,18.70
2023-01-09T05:02:47.228Z,18.70
2023-01-09T05:05:16.615Z,18.60
2023-01-09T05:07:45.781Z,18.60
2023-01-09T05:10:14.986Z,18.60
2023-01-09T05:12:44.265Z,18.60
2023-01-09T05:15:15.190Z,18.60
2023-01-09T05:17:44.364Z,18.60
2023-01-09T05:20:13.872Z,18.60
2023-01-09T05:22:43.093Z,18.60
2023-01-09T05:25:12.332Z,18.60
2023-01-09T05:27:44.161Z,18.60
2023-01-09T05:30:18.101Z,18.60
2023-01-09T05:32:47.755Z,18.60
2023-01-09T05:35:17.165Z,18.60
2023-01-09T05:37:46.405Z,18.60
2023-01-09T05:40:16.050Z,18.70
2023-01-09T05:42:45.761Z,18.70
2023-01-09T05:45:16.622Z,18.70
2023-01-09T05:47:46.599Z,18.70
2023-01-09T05:50:16.923Z,18.70
2023-01-09T05:52:46.124Z,18.70
2023-01-09T05:55:15.529Z,18.70
2023-01-09T05:57:44.813Z,18.70
2023-01-09T06:00:16.748Z,18.70
2023-01-09T06:02:46.055Z,18.70
2023-01-09T06:05:15.416Z,18.70
2023-01-09T06:07:44.697Z,18.70
2023-01-09T06:10:16.485Z,18.70
2023-01-09T06:12:49.327Z,18.70
2023-01-09T06:15:20.805Z,18.70
2023-01-09T06:17:50.120Z,18.70
2023-01-09T06:20:19.613Z,18.70
2023-01-09T06:22:52.214Z,18.70
2023-01-09T06:25:21.467Z,18.70
2023-01-09T06:27:52.407Z,18.70
2023-01-09T06:30:23.139Z,18.60
2023-01-09T06:32:52.604Z,18.60
2023-01-09T06:35:22.661Z,18.60
2023-01-09T06:37:52.292Z,18.60
2023-01-09T06:40:21.465Z,18.60
2023-01-09T06:42:51.206Z,18.60
2023-01-09T06:45:20.487Z,18.60
2023-01-09T06:47:51.297Z,18.60
2023-01-09T06:50:20.645Z,18.60
2023-01-09T06:52:49.880Z,18.60
2023-01-09T06:55:19.213Z,18.60
2023-01-09T06:57:48.455Z,18.50
2023-01-09T07:00:18.577Z,18.50
2023-01-09T07:02:47.769Z,18.50
2023-01-09T07:05:18.745Z,18.50
2023-01-09T07:07:48.173Z,18.50
2023-01-09T07:10:17.514Z,18.50
2023-01-09T07:12:46.725Z,18.50
2023-01-09T07:15:16.004Z,18.50
2023-01-09T07:17:45.179Z,18.50
2023-01-09T07:20:14.480Z,18.50
2023-01-09T07:22:45.135Z,18.50
2023-01-09T07:25:14.649Z,18.50
2023-01-09T07:27:43.882Z,18.40
2023-01-09T07:30:14.417Z,18.40
2023-01-09T07:32:43.871Z,18.40
2023-01-09T07:35:13.150Z,18.40
2023-01-09T07:37:42.384Z,18.40
2023-01-09T07:40:14.029Z,18.40
2023-01-09T07:42:43.335Z,18.40
2023-01-09T07:45:13.161Z,18.40
2023-01-09T07:47:43.842Z,18.40
2023-01-09T07:50:13.278Z,18.40
2023-01-09T07:52:42.554Z,18.40
2023-01-09T07:55:13.972Z,18.40
2023-01-09T07:57:44.288Z,18.40
2023-01-09T08:00:14.482Z,18.40
2023-01-09T08:02:43.907Z,18.30
2023-01-09T08:05:15.194Z,18.30
2023-01-09T08:07:44.872Z,18.30
2023-01-09T08:10:15.486Z,18.30
2023-01-09T08:12:45.145Z,18.30
2023-01-09T08:15:15.320Z,18.30
2023-01-09T08:17:45.589Z,18.30
2023-01-09T08:20:16.870Z,18.30
2023-01-09T08:22:49.852Z,18.30
2023-01-09T08:25:20.726Z,18.30
2023-01-09T08:27:50.400Z,18.30
2023-01-09T08:30:20.445Z,18.30
2023-01-09T08:32:54.086Z,18.30
2023-01-09T08:35:23.974Z,18.30
2023-01-09T08:37:53.251Z,18.30
2023-01-09T08:40:23.930Z,18.30
2023-01-09T08:43:10.299Z,18.30
2023-01-09T08:45:57.256Z,18.30
2023-01-09T08:48:26.646Z,18.30
2023-01-09T08:50:55.872Z,18.30
2023-01-09T08:53:25.104Z,18.20
2023-01-09T08:55:55.806Z,18.20
2023-01-09T08:58:25.072Z,18.20
2023-01-09T09:00:54.245Z,18.20
2023-01-09T09:03:23.417Z,18.20
2023-01-09T09:05:52.804Z,18.20
2023-01-09T09:08:22.004Z,18.20
2023-01-09T09:10:51.270Z,18.20
2023-01-09T09:13:21.903Z,18.20
2023-01-09T09:15:51.260Z,18.20
2023-01-09T09:18:20.506Z,18.20
2023-01-09T09:20:49.701Z,18.20
2023-01-09T09:23:18.889Z,18.20
2023-01-09T09:25:48.412Z,18.20
2023-01-09T09:28:17.628Z,18.20
2023-01-09T09:30:48.236Z,18.20
2023-01-09T09:33:17.381Z,18.20
2023-01-09T09:35:46.677Z,18.20
2023-01-09T09:38:20.390Z,18.20
2023-01-09T09:41:07.527Z,18.20
2023-01-09T09:44:08.413Z,18.20
2023-01-09T09:46:45.944Z,18.20
2023-01-09T09:49:21.233Z,18.20
2023-01-09T09:52:02.546Z,18.10
2023-01-09T09:54:35.837Z,18.20
2023-01-09T09:57:12.066Z,18.10
2023-01-09T09:59:43.415Z,18.10
2023-01-09T10:02:27.396Z,18.20
2023-01-09T10:05:03.417Z,18.10
2023-01-09T10:07:41.932Z,18.10
2023-01-09T10:10:19.753Z,18.10
2023-01-09T10:12:55.255Z,18.10
2023-01-09T10:15:37.130Z,18.10
2023-01-09T10:18:19.853Z,18.10
2023-01-09T10:20:57.821Z,18.10
2023-01-09T10:24:00.402Z,18.10
2023-01-09T10:26:34.196Z,18.10
2023-01-09T10:29:31.166Z,18.10
2023-01-09T10:32:12.876Z,18.10
2023-01-09T10:34:55.556Z,18.10
2023-01-09T10:37:26.790Z,18.10
2023-01-09T10:40:00.842Z,18.10
2023-01-09T10:42:36.915Z,18.10
2023-01-09T10:45:13.898Z,18.10
2023-01-09T10:47:44.201Z,18.10
2023-01-09T10:50:21.740Z,18.10
2023-01-09T10:52:53.572Z,18.10
2023-01-09T10:55:32.328Z,18.10
2023-01-09T10:58:04.539Z,18.10
2023-01-09T11:00:33.820Z,18.10
2023-01-09T11:03:03.140Z,18.10
2023-01-09T11:05:34.244Z,18.10
2023-01-09T11:08:12.807Z,18.10
2023-01-09T11:10:49.875Z,18.10
2023-01-09T11:13:23.510Z,18.10
2023-01-09T11:16:06.947Z,18.10
2023-01-09T11:18:39.387Z,18.10
2023-01-09T11:21:33.462Z,18.10
2023-01-09T11:24:31.059Z,18.10
2023-01-09T11:27:23.941Z,18.10
2023-01-09T11:30:27.096Z,18.00
2023-01-09T11:32:57.991Z,18.00
2023-01-09T11:35:33.741Z,18.00
2023-01-09T11:38:15.831Z,18.00
2023-01-09T11:40:50.967Z,18.00
2023-01-09T11:43:30.970Z,18.00
2023-01-09T11:46:03.260Z,18.00
2023-01-09T11:48:36.208Z,18.00
2023-01-09T11:51:08.269Z,18.00
2023-01-09T11:54:00.204Z,18.00
2023-01-09T11:56:29.638Z,18.00
2023-01-09T11:59:00.233Z,18.00
2023-01-09T12:01:53.880Z,18.00
2023-01-09T12:04:30.082Z,18.00
2023-01-09T12:07:24.798Z,18.00
2023-01-09T12:10:03.777Z,18.00
2023-01-09T12:12:42.626Z,18.00
2023-01-09T12:15:26.005Z,18.00
2023-01-09T12:18:12.153Z,18.00
2023-01-09T12:21:17.837Z,18.00
2023-01-09T12:24:01.834Z,18.00
2023-01-09T12:26:34.299Z,18.00
2023-01-09T12:29:22.841Z,18.00
2023-01-09T12:32:18.667Z,18.00
2023-01-09T12:35:00.525Z,18.00
2023-01-09T12:37:53.295Z,18.00
2023-01-09T12:40:43.711Z,18.00
2023-01-09T12:43:22.028Z,18.00
2023-01-09T12:46:04.555Z,18.00
2023-01-09T12:48:48.878Z,18.00
2023-01-09T12:51:32.235Z,17.90
2023-01-09T12:54:06.999Z,18.00
2023-01-09T12:56:42.115Z,18.00
2023-01-09T12:59:30.356Z,18.00
2023-01-09T13:02:09.210Z,17.90
2023-01-09T13:04:44.125Z,17.90
2023-01-09T13:07:18.897Z,17.90
2023-01-09T13:09:53.542Z,17.90
2023-01-09T13:12:25.728Z,17.90
2023-01-09T13:15:00.977Z,17.90
2023-01-09T13:17:36.541Z,17.90
2023-01-09T13:20:19.403Z,17.90
2023-01-09T13:22:51.135Z,17.90
2023-01-09T13:25:38.546Z,17.90
2023-01-09T13:28:13.764Z,17.90
2023-01-09T13:31:12.985Z,17.90
2023-01-09T13:33:46.729Z,17.90
2023-01-09T13:36:25.767Z,17.90
2023-01-09T13:38:56.832Z,17.90
2023-01-09T13:41:45.959Z,17.90
2023-01-09T13:44:25.310Z,17.90
2023-01-09T13:46:58.540Z,17.90
2023-01-09T13:49:50.597Z,17.90
2023-01-09T13:52:37.414Z,17.90
2023-01-09T13:55:26.462Z,17.90
2023-01-09T13:58:22.903Z,17.90
2023-01-09T14:01:00.903Z,17.90
2023-01-09T14:03:37.446Z,17.80
2023-01-09T14:06:25.452Z,17.80
2023-01-09T14:09:14.597Z,17.90
2023-01-09T14:11:44.730Z,17.90
2023-01-09T14:14:27.349Z,17.90
2023-01-09T14:16:57.012Z,17.90
2023-01-09T14:19:36.652Z,17.80
2023-01-09T14:22:07.015Z,17.90
2023-01-09T14:24:44.266Z,17.80
2023-01-09T14:27:43.129Z,17.80
2023-01-09T14:30:30.594Z,17.80
2023-01-09T14:33:01.472Z,17.80
2023-01-09T14:35:46.578Z,17.80
2023-01-09T14:38:30.798Z,17.80
2023-01-09T14:41:05.312Z,17.80
2023-01-09T14:43:47.780Z,17.80
2023-01-09T14:46:19.218Z,17.80
2023-01-09T14:49:00.363Z,17.80
2023-01-09T14:51:35.916Z,17.80
2023-01-09T14:54:15.924Z,17.80
2023-01-09T14:56:48.314Z,17.80
2023-01-09T14:59:18.277Z,17.80
2023-01-09T15:01:51.699Z,17.80
2023-01-09T15:04:31.875Z,17.80
2023-01-09T15:07:02.708Z,17.80
2023-01-09T15:09:45.694Z,17.80
2023-01-09T15:12:22.922Z,17.80
2023-01-09T15:14:54.582Z,17.80
2023-01-09T15:17:26.367Z,17.70
2023-01-09T15:19:56.494Z,17.70
2023-01-09T15:22:30.295Z,17.70
2023-01-09T15:25:00.416Z,17.70
2023-01-09T15:27:30.045Z,17.70
2023-01-09T15:30:17.346Z,17.70
2023-01-09T15:32:50.416Z,17.70
2023-01-09T15:35:21.291Z,17.70
2023-01-09T15:37:54.536Z,17.70
2023-01-09T15:40:26.863Z,17.70
2023-01-09T15:42:58.221Z,17.70
2023-01-09T15:45:32.580Z,17.70
2023-01-09T15:48:22.039Z,17.70
2023-01-09T15:50:53.649Z,17.70
2023-01-09T15:53:26.759Z,17.70
2023-01-09T15:56:24.291Z,17.70
2023-01-09T15:58:54.603Z,17.70
2023-01-09T16:01:31.337Z,17.70
2023-01-09T16:04:07.226Z,17.70
2023-01-09T16:06:38.885Z,17.60
2023-01-09T16:09:17.626Z,17.70
2023-01-09T16:11:52.207Z,17.70
2023-01-09T16:14:24.131Z,17.80
2023-01-09T16:16:55.630Z,18.00
2023-01-09T16:19:34.146Z,18.20
2023-01-09T16:22:04.497Z,18.40
2023-01-09T16:24:42.387Z,18.60
2023-01-09T16:27:30.923Z,18.70
2023-01-09T16:30:01.090Z,18.90
2023-01-09T16:32:32.778Z,18.90
2023-01-09T16:35:06.108Z,19.00
2023-01-09T16:37:37.589Z,19.10
2023-01-09T16:40:27.938Z,19.10
2023-01-09T16:43:01.404Z,19.20
2023-01-09T16:45:36.259Z,19.20
2023-01-09T16:48:13.767Z,19.30
2023-01-09T16:50:43.356Z,19.30
2023-01-09T16:53:16.792Z,19.40
2023-01-09T16:55:48.198Z,19.40
2023-01-09T16:58:20.375Z,19.40
2023-01-09T17:00:49.565Z,19.30
2023-01-09T17:03:20.276Z,19.30
2023-01-09T17:05:52.423Z,19.20
2023-01-09T17:08:26.300Z,19.20
2023-01-09T17:10:58.447Z,19.20
2023-01-09T17:13:27.883Z,19.20
2023-01-09T17:15:58.507Z,19.20
2023-01-09T17:18:29.763Z,19.20
2023-01-09T17:20:59.938Z,19.20
2023-01-09T17:23:29.236Z,19.30
2023-01-09T17:26:18.665Z,19.30
2023-01-09T17:28:50.611Z,19.30
2023-01-09T17:31:20.382Z,19.30
2023-01-09T17:33:49.581Z,19.30
2023-01-09T17:36:29.024Z,19.30
2023-01-09T17:38:58.316Z,19.40
2023-01-09T17:41:31.115Z,19.40
2023-01-09T17:44:01.282Z,19.40
2023-01-09T17:46:33.671Z,19.40
2023-01-09T17:49:04.364Z,19.40
2023-01-09T17:51:34.068Z,19.40
2023-01-09T17:54:04.055Z,19.40
2023-01-09T17:56:37.527Z,19.50
2023-01-09T17:59:07.726Z,19.50
2023-01-09T18:01:37.290Z,19.50
2023-01-09T18:04:06.734Z,19.50
2023-01-09T18:06:36.901Z,19.50
2023-01-09T18:09:06.565Z,19.50
2023-01-09T18:11:37.369Z,19.60
2023-01-09T18:14:06.702Z,19.60
2023-01-09T18:16:36.162Z,20.20
2023-01-09T18:19:05.626Z,20.70
2023-01-09T18:21:34.848Z,20.90
2023-01-09T18:24:04.198Z,21.10
2023-01-09T18:26:33.355Z,21.50
2023-01-09T18:29:04.141Z,21.80
2023-01-09T18:31:33.628Z,22.00
2023-01-09T18:34:05.609Z,22.10
2023-01-09T18:36:35.255Z,22.30
2023-01-09T18:39:07.344Z,22.30
2023-01-09T18:41:36.600Z,22.40
2023-01-09T18:44:08.674Z,22.40
2023-01-09T18:46:40.968Z,22.50
2023-01-09T18:49:11.363Z,22.50
2023-01-09T18:51:40.644Z,22.50
2023-01-09T18:54:09.970Z,22.10
2023-01-09T18:56:39.191Z,21.80
2023-01-09T18:59:12.425Z,21.60
2023-01-09T19:01:41.898Z,21.30
2023-01-09T19:04:11.293Z,21.20
2023-01-09T19:06:40.587Z,21.10
2023-01-09T19:09:09.863Z,21.00
2023-01-09T19:11:39.046Z,21.00
2023-01-09T19:14:09.696Z,20.90
2023-01-09T19:16:38.974Z,20.90
2023-01-09T19:19:08.882Z,20.90
2023-01-09T19:21:38.550Z,20.90
2023-01-09T19:24:08.591Z,20.90
2023-01-09T19:26:37.944Z,20.90
2023-01-09T19:29:07.636Z,20.80
2023-01-09T19:31:38.591Z,20.80
2023-01-09T19:34:08.119Z,20.80
2023-01-09T19:36:37.613Z,20.80
2023-01-09T19:39:07.585Z,20.80
2023-01-09T19:41:37.015Z,20.90
2023-01-09T19:44:06.760Z,20.90
2023-01-09T19:46:37.800Z,20.80
2023-01-09T19:49:07.065Z,20.80
2023-01-09T19:51:36.610Z,20.90
2023-01-09T19:56:35.743Z,20.90
2023-01-09T19:59:06.634Z,20.90
2023-01-09T20:01:39.719Z,20.90
2023-01-09T20:04:14.098Z,20.90
2023-01-09T20:06:45.391Z,20.90
2023-01-09T20:09:16.627Z,20.90
2023-01-09T20:11:46.202Z,20.90
2023-01-09T20:14:17.248Z,20.90
2023-01-09T20:16:49.038Z,20.90
2023-01-09T20:19:18.497Z,20.90
2023-01-09T20:21:47.763Z,20.90
2023-01-09T20:24:17.995Z,20.90
2023-01-09T20:26:47.663Z,20.90
2023-01-09T20:29:17.321Z,20.90
2023-01-09T20:31:48.147Z,20.90
2023-01-09T20:34:17.881Z,20.90
2023-01-09T20:36:47.622Z,20.80
2023-01-09T20:39:16.852Z,20.70
2023-01-09T20:41:46.077Z,20.60
2023-01-09T20:44:16.901Z,20.50
2023-01-09T20:46:48.687Z,20.40
2023-01-09T20:49:19.547Z,20.40
2023-01-09T20:51:50.442Z,20.30
2023-01-09T20:54:22.097Z,20.30
2023-01-09T20:56:51.432Z,20.20
2023-01-09T20:59:22.342Z,20.20
2023-01-09T21:01:53.171Z,20.20
2023-01-09T21:04:22.463Z,20.10
2023-01-09T21:06:51.620Z,20.10
2023-01-09T21:09:20.922Z,20.00
2023-01-09T21:11:50.109Z,20.00
2023-01-09T21:14:20.327Z,20.00
2023-01-09T21:16:54.990Z,19.90
2023-01-09T21:19:25.038Z,19.90
2023-01-09T21:21:54.238Z,19.90
2023-01-09T21:24:23.680Z,19.80
2023-01-09T21:26:53.011Z,19.80
2023-01-09T21:29:22.285Z,19.80
2023-01-09T21:31:54.071Z,19.70
2023-01-09T21:34:24.324Z,19.70
2023-01-09T21:36:53.841Z,19.70
2023-01-09T21:39:23.461Z,19.70
2023-01-09T21:42:10.303Z,19.60
2023-01-09T21:44:57.145Z,19.60
2023-01-09T21:47:27.787Z,19.60
2023-01-09T21:49:57.008Z,19.50
2023-01-09T21:52:26.787Z,19.50
2023-01-09T21:54:56.282Z,19.50
2023-01-09T21:57:25.758Z,19.50
2023-01-09T21:59:55.040Z,19.50
2023-01-09T22:02:24.395Z,19.40
2023-01-09T22:05:00.235Z,19.40
2023-01-09T22:07:29.537Z,19.40
2023-01-09T22:09:58.749Z,19.40
2023-01-09T22:12:27.965Z,19.40
2023-01-09T22:14:57.373Z,19.30
2023-01-09T22:17:26.635Z,19.30
2023-01-09T22:19:57.350Z,19.30
2023-01-09T22:22:26.622Z,19.30
2023-01-09T22:24:55.822Z,19.30
2023-01-09T22:27:25.063Z,19.30
2023-01-09T22:29:54.267Z,19.20
2023-01-09T22:32:23.827Z,19.30
2023-01-09T22:34:53.079Z,19.20
2023-01-09T22:37:23.759Z,19.20
2023-01-09T22:39:52.982Z,19.20
2023-01-09T22:42:22.258Z,19.20
2023-01-09T22:44:51.507Z,19.10
2023-01-09T22:47:20.771Z,19.10
2023-01-09T22:49:53.793Z,19.10
2023-01-09T22:52:24.699Z,19.10
2023-01-09T22:54:53.952Z,19.10
2023-01-09T22:57:23.163Z,19.00
2023-01-09T22:59:52.381Z,19.00
2023-01-09T23:02:21.747Z,19.00
2023-01-09T23:04:51.169Z,19.00
2023-01-09T23:07:20.365Z,19.00
2023-01-09T23:09:51.087Z,19.00
2023-01-09T23:12:20.407Z,19.00
2023-01-09T23:14:49.772Z,19.00
2023-01-09T23:17:19.100Z,18.90
2023-01-09T23:19:48.372Z,18.90
2023-01-09T23:22:17.525Z,18.90
2023-01-09T23:24:46.828Z,18.90
2023-01-09T23:27:17.585Z,18.90
2023-01-09T23:29:47.088Z,18.80
2023-01-09T23:32:16.233Z,18.80
2023-01-09T23:34:47.092Z,18.80
2023-01-09T23:37:16.473Z,18.80
2023-01-09T23:39:45.758Z,18.80
2023-01-09T23:42:33.791Z,18.80
2023-01-09T23:45:03.098Z,18.80
2023-01-09T23:47:32.388Z,18.70
2023-01-09T23:50:02.824Z,18.70
2023-01-09T23:52:32.059Z,18.70
2023-01-09T23:55:01.328Z,18.70
2023-01-09T23:57:31.931Z,18.70
